sensor_id;sensor_type;location;lat;lon;timestamp;P1;durP1;ratioP1;P2;durP2;ratioP2
49722;SDS011;43484;43.608;1.458;2023-03-23T00:02:00;4.07;;;1.30;;
49722;SDS011;43484;43.608;1.458;2023-03-23T00:04:25;1.50;;;0.90;;
49722;SDS011;43484;43.608;1.458;2023-03-23T00:06:54;4.32;;;1.10;;
49722;SDS011;43484;43.608;1.458;2023-03-23T00:09:19;3.42;;;1.20;;
49722;SDS011;43484;43.608;1.458;2023-03-23T00:11:49;5.50;;;1.15;;
49722;SDS011;43484;43.608;1.458;2023-03-23T00:14:15;3.28;;;1.10;;
49722;SDS011;43484;43.608;1.458;2023-03-23T00:16:47;1.88;;;1.05;;
49722;SDS011;43484;43.608;1.458;2023-03-23T00:19:14;4.30;;;1.30;;
49722;SDS011;43484;43.608;1.458;2023-03-23T00:21:41;1.92;;;1.48;;
49722;SDS011;43484;43.608;1.458;2023-03-23T00:24:12;5.30;;;1.45;;
49722;SDS011;43484;43.608;1.458;2023-03-23T00:26:42;3.15;;;1.60;;
49722;SDS011;43484;43.608;1.458;2023-03-23T00:31:40;3.10;;;1.50;;
49722;SDS011;43484;43.608;1.458;2023-03-23T00:34:06;6.07;;;1.65;;
49722;SDS011;43484;43.608;1.458;2023-03-23T00:36:32;3.78;;;1.48;;
49722;SDS011;43484;43.608;1.458;2023-03-23T00:39:00;5.57;;;1.80;;
49722;SDS011;43484;43.608;1.458;2023-03-23T00:41:27;4.28;;;1.25;;
49722;SDS011;43484;43.608;1.458;2023-03-23T00:43:57;5.00;;;1.88;;
49722;SDS011;43484;43.608;1.458;2023-03-23T00:46:25;2.83;;;2.00;;
49722;SDS011;43484;43.608;1.458;2023-03-23T00:48:51;4.05;;;1.75;;
49722;SDS011;43484;43.608;1.458;2023-03-23T00:51:17;5.30;;;2.40;;
49722;SDS011;43484;43.608;1.458;2023-03-23T00:53:43;5.70;;;2.55;;
49722;SDS011;43484;43.608;1.458;2023-03-23T00:56:10;5.03;;;2.88;;
49722;SDS011;43484;43.608;1.458;2023-03-23T00:58:36;4.57;;;3.20;;
49722;SDS011;43484;43.608;1.458;2023-03-23T01:01:02;11.63;;;3.63;;
49722;SDS011;43484;43.608;1.458;2023-03-23T01:03:28;7.13;;;3.70;;
49722;SDS011;43484;43.608;1.458;2023-03-23T01:05:54;8.05;;;3.70;;
49722;SDS011;43484;43.608;1.458;2023-03-23T01:08:20;5.93;;;4.05;;
49722;SDS011;43484;43.608;1.458;2023-03-23T01:10:47;6.07;;;3.80;;
49722;SDS011;43484;43.608;1.458;2023-03-23T01:13:13;7.03;;;4.13;;
49722;SDS011;43484;43.608;1.458;2023-03-23T01:15:40;8.35;;;4.03;;
49722;SDS011;43484;43.608;1.458;2023-03-23T01:18:07;7.80;;;4.53;;
49722;SDS011;43484;43.608;1.458;2023-03-23T01:20:33;9.43;;;4.13;;
49722;SDS011;43484;43.608;1.458;2023-03-23T01:23:00;8.38;;;5.40;;
49722;SDS011;43484;43.608;1.458;2023-03-23T01:25:27;12.45;;;5.15;;
49722;SDS011;43484;43.608;1.458;2023-03-23T01:27:54;8.52;;;5.57;;
49722;SDS011;43484;43.608;1.458;2023-03-23T01:30:19;8.73;;;5.32;;
49722;SDS011;43484;43.608;1.458;2023-03-23T01:32:45;12.40;;;5.80;;
49722;SDS011;43484;43.608;1.458;2023-03-23T01:35:12;13.25;;;6.20;;
49722;SDS011;43484;43.608;1.458;2023-03-23T01:37:37;9.68;;;5.45;;
49722;SDS011;43484;43.608;1.458;2023-03-23T01:40:03;11.45;;;6.53;;
49722;SDS011;43484;43.608;1.458;2023-03-23T01:42:31;11.95;;;6.32;;
49722;SDS011;43484;43.608;1.458;2023-03-23T01:47:45;13.45;;;6.63;;
49722;SDS011;43484;43.608;1.458;2023-03-23T01:50:11;13.05;;;7.70;;
49722;SDS011;43484;43.608;1.458;2023-03-23T01:52:37;11.02;;;7.45;;
49722;SDS011;43484;43.608;1.458;2023-03-23T01:55:04;15.07;;;7.30;;
49722;SDS011;43484;43.608;1.458;2023-03-23T01:57:31;13.85;;;7.68;;
49722;SDS011;43484;43.608;1.458;2023-03-23T01:59:57;11.93;;;7.78;;
49722;SDS011;43484;43.608;1.458;2023-03-23T02:02:26;13.88;;;8.60;;
49722;SDS011;43484;43.608;1.458;2023-03-23T02:04:54;14.00;;;8.70;;
49722;SDS011;43484;43.608;1.458;2023-03-23T02:07:24;16.40;;;7.97;;
49722;SDS011;43484;43.608;1.458;2023-03-23T02:09:50;15.23;;;8.80;;
49722;SDS011;43484;43.608;1.458;2023-03-23T02:12:16;15.40;;;8.45;;
49722;SDS011;43484;43.608;1.458;2023-03-23T02:14:42;15.52;;;8.52;;
49722;SDS011;43484;43.608;1.458;2023-03-23T02:17:09;14.88;;;8.80;;
49722;SDS011;43484;43.608;1.458;2023-03-23T02:22:40;16.30;;;9.85;;
49722;SDS011;43484;43.608;1.458;2023-03-23T02:25:26;18.70;;;9.00;;
49722;SDS011;43484;43.608;1.458;2023-03-23T02:36:13;16.15;;;8.98;;
49722;SDS011;43484;43.608;1.458;2023-03-23T02:41:21;21.58;;;9.38;;
49722;SDS011;43484;43.608;1.458;2023-03-23T02:43:52;17.35;;;10.15;;
49722;SDS011;43484;43.608;1.458;2023-03-23T02:46:20;15.68;;;9.40;;
49722;SDS011;43484;43.608;1.458;2023-03-23T02:48:47;18.48;;;8.77;;
49722;SDS011;43484;43.608;1.458;2023-03-23T02:51:16;18.98;;;9.38;;
49722;SDS011;43484;43.608;1.458;2023-03-23T02:53:45;19.15;;;9.23;;
49722;SDS011;43484;43.608;1.458;2023-03-23T02:56:14;15.35;;;9.65;;
49722;SDS011;43484;43.608;1.458;2023-03-23T02:58:40;18.00;;;9.25;;
49722;SDS011;43484;43.608;1.458;2023-03-23T03:03:50;17.65;;;9.35;;
49722;SDS011;43484;43.608;1.458;2023-03-23T03:08:59;13.10;;;8.63;;
49722;SDS011;43484;43.608;1.458;2023-03-23T03:11:33;17.58;;;8.90;;
49722;SDS011;43484;43.608;1.458;2023-03-23T03:14:03;12.13;;;8.82;;
49722;SDS011;43484;43.608;1.458;2023-03-23T03:19:04;14.85;;;9.05;;
49722;SDS011;43484;43.608;1.458;2023-03-23T03:21:37;18.45;;;9.02;;
49722;SDS011;43484;43.608;1.458;2023-03-23T03:24:07;16.92;;;9.90;;
49722;SDS011;43484;43.608;1.458;2023-03-23T03:26:36;18.65;;;9.30;;
49722;SDS011;43484;43.608;1.458;2023-03-23T03:29:04;15.35;;;8.82;;
49722;SDS011;43484;43.608;1.458;2023-03-23T03:31:32;23.13;;;9.45;;
49722;SDS011;43484;43.608;1.458;2023-03-23T03:34:01;15.27;;;8.85;;
49722;SDS011;43484;43.608;1.458;2023-03-23T03:36:30;14.57;;;8.30;;
49722;SDS011;43484;43.608;1.458;2023-03-23T03:39:03;21.00;;;8.65;;
49722;SDS011;43484;43.608;1.458;2023-03-23T03:41:32;14.85;;;8.75;;
49722;SDS011;43484;43.608;1.458;2023-03-23T03:44:00;15.13;;;7.72;;
49722;SDS011;43484;43.608;1.458;2023-03-23T03:46:26;13.45;;;8.02;;
49722;SDS011;43484;43.608;1.458;2023-03-23T03:48:55;12.73;;;8.13;;
49722;SDS011;43484;43.608;1.458;2023-03-23T03:51:22;13.32;;;7.70;;
49722;SDS011;43484;43.608;1.458;2023-03-23T03:53:48;10.98;;;7.53;;
49722;SDS011;43484;43.608;1.458;2023-03-23T03:56:14;12.32;;;6.78;;
49722;SDS011;43484;43.608;1.458;2023-03-23T03:58:39;14.32;;;7.43;;
49722;SDS011;43484;43.608;1.458;2023-03-23T04:01:07;15.15;;;7.63;;
49722;SDS011;43484;43.608;1.458;2023-03-23T04:03:37;14.15;;;7.53;;
49722;SDS011;43484;43.608;1.458;2023-03-23T04:06:04;11.32;;;6.40;;
49722;SDS011;43484;43.608;1.458;2023-03-23T04:08:30;19.08;;;8.48;;
49722;SDS011;43484;43.608;1.458;2023-03-23T04:10:56;13.45;;;6.88;;
49722;SDS011;43484;43.608;1.458;2023-03-23T04:13:22;15.80;;;6.93;;
49722;SDS011;43484;43.608;1.458;2023-03-23T04:15:48;14.43;;;8.18;;
49722;SDS011;43484;43.608;1.458;2023-03-23T04:18:14;12.80;;;6.40;;
49722;SDS011;43484;43.608;1.458;2023-03-23T04:20:43;12.98;;;7.38;;
49722;SDS011;43484;43.608;1.458;2023-03-23T04:23:19;11.30;;;7.45;;
49722;SDS011;43484;43.608;1.458;2023-03-23T04:25:47;19.00;;;7.05;;
49722;SDS011;43484;43.608;1.458;2023-03-23T04:28:14;10.57;;;6.75;;
49722;SDS011;43484;43.608;1.458;2023-03-23T04:30:42;13.48;;;6.88;;
49722;SDS011;43484;43.608;1.458;2023-03-23T04:33:08;16.45;;;7.80;;
49722;SDS011;43484;43.608;1.458;2023-03-23T04:35:39;14.85;;;8.25;;
49722;SDS011;43484;43.608;1.458;2023-03-23T04:38:06;16.20;;;8.45;;
49722;SDS011;43484;43.608;1.458;2023-03-23T04:40:32;17.33;;;8.50;;
49722;SDS011;43484;43.608;1.458;2023-03-23T04:43:01;17.35;;;8.32;;
49722;SDS011;43484;43.608;1.458;2023-03-23T04:45:30;14.85;;;8.23;;
49722;SDS011;43484;43.608;1.458;2023-03-23T04:47:57;15.43;;;8.35;;
49722;SDS011;43484;43.608;1.458;2023-03-23T04:50:23;21.77;;;9.45;;
49722;SDS011;43484;43.608;1.458;2023-03-23T04:52:58;12.93;;;9.20;;
49722;SDS011;43484;43.608;1.458;2023-03-23T04:55:29;21.20;;;9.38;;
49722;SDS011;43484;43.608;1.458;2023-03-23T04:57:56;17.50;;;9.93;;
49722;SDS011;43484;43.608;1.458;2023-03-23T05:00:25;17.42;;;10.02;;
49722;SDS011;43484;43.608;1.458;2023-03-23T05:02:51;18.02;;;9.38;;
49722;SDS011;43484;43.608;1.458;2023-03-23T05:05:16;20.20;;;9.82;;
49722;SDS011;43484;43.608;1.458;2023-03-23T05:07:44;26.42;;;10.48;;
49722;SDS011;43484;43.608;1.458;2023-03-23T05:10:10;21.45;;;9.90;;
49722;SDS011;43484;43.608;1.458;2023-03-23T05:12:37;19.00;;;10.85;;
49722;SDS011;43484;43.608;1.458;2023-03-23T05:15:03;19.75;;;10.15;;
49722;SDS011;43484;43.608;1.458;2023-03-23T05:17:30;16.40;;;9.43;;
49722;SDS011;43484;43.608;1.458;2023-03-23T05:19:57;20.60;;;10.35;;
49722;SDS011;43484;43.608;1.458;2023-03-23T05:22:23;17.08;;;9.95;;
49722;SDS011;43484;43.608;1.458;2023-03-23T05:24:51;25.48;;;10.35;;
49722;SDS011;43484;43.608;1.458;2023-03-23T05:27:17;16.92;;;9.80;;
49722;SDS011;43484;43.608;1.458;2023-03-23T05:29:44;19.17;;;9.60;;
49722;SDS011;43484;43.608;1.458;2023-03-23T05:32:13;12.90;;;9.63;;
49722;SDS011;43484;43.608;1.458;2023-03-23T05:34:40;19.83;;;9.82;;
49722;SDS011;43484;43.608;1.458;2023-03-23T05:37:07;18.85;;;10.57;;
49722;SDS011;43484;43.608;1.458;2023-03-23T05:39:34;16.90;;;10.60;;
49722;SDS011;43484;43.608;1.458;2023-03-23T05:42:01;23.42;;;10.00;;
49722;SDS011;43484;43.608;1.458;2023-03-23T05:44:27;20.08;;;10.18;;
49722;SDS011;43484;43.608;1.458;2023-03-23T05:46:52;17.17;;;10.57;;
49722;SDS011;43484;43.608;1.458;2023-03-23T05:49:18;16.60;;;9.85;;
49722;SDS011;43484;43.608;1.458;2023-03-23T05:51:47;20.90;;;10.65;;
49722;SDS011;43484;43.608;1.458;2023-03-23T05:54:14;16.80;;;9.82;;
49722;SDS011;43484;43.608;1.458;2023-03-23T05:56:41;20.13;;;9.95;;
49722;SDS011;43484;43.608;1.458;2023-03-23T05:59:07;16.58;;;10.40;;
49722;SDS011;43484;43.608;1.458;2023-03-23T06:01:34;19.50;;;9.88;;
49722;SDS011;43484;43.608;1.458;2023-03-23T06:03:59;15.15;;;9.52;;
49722;SDS011;43484;43.608;1.458;2023-03-23T06:06:25;24.20;;;10.57;;
49722;SDS011;43484;43.608;1.458;2023-03-23T06:08:52;20.67;;;10.63;;
49722;SDS011;43484;43.608;1.458;2023-03-23T06:11:17;14.27;;;9.93;;
49722;SDS011;43484;43.608;1.458;2023-03-23T06:13:44;20.40;;;10.07;;
49722;SDS011;43484;43.608;1.458;2023-03-23T06:16:10;14.80;;;10.27;;
49722;SDS011;43484;43.608;1.458;2023-03-23T06:18:35;20.25;;;10.48;;
49722;SDS011;43484;43.608;1.458;2023-03-23T06:21:04;15.57;;;10.13;;
49722;SDS011;43484;43.608;1.458;2023-03-23T06:23:31;18.00;;;10.07;;
49722;SDS011;43484;43.608;1.458;2023-03-23T06:25:57;24.85;;;10.48;;
49722;SDS011;43484;43.608;1.458;2023-03-23T06:28:25;20.95;;;10.18;;
49722;SDS011;43484;43.608;1.458;2023-03-23T06:30:52;20.63;;;10.27;;
49722;SDS011;43484;43.608;1.458;2023-03-23T06:33:18;20.63;;;10.45;;
49722;SDS011;43484;43.608;1.458;2023-03-23T06:35:44;22.38;;;10.20;;
49722;SDS011;43484;43.608;1.458;2023-03-23T06:38:10;22.58;;;10.07;;
49722;SDS011;43484;43.608;1.458;2023-03-23T06:40:36;16.65;;;9.55;;
49722;SDS011;43484;43.608;1.458;2023-03-23T06:43:01;20.70;;;10.35;;
49722;SDS011;43484;43.608;1.458;2023-03-23T06:45:29;17.42;;;9.57;;
49722;SDS011;43484;43.608;1.458;2023-03-23T06:47:55;24.08;;;10.20;;
49722;SDS011;43484;43.608;1.458;2023-03-23T06:50:21;17.83;;;8.93;;
49722;SDS011;43484;43.608;1.458;2023-03-23T06:52:47;15.48;;;9.20;;
49722;SDS011;43484;43.608;1.458;2023-03-23T06:55:14;20.33;;;8.88;;
49722;SDS011;43484;43.608;1.458;2023-03-23T06:57:41;15.07;;;8.52;;
49722;SDS011;43484;43.608;1.458;2023-03-23T07:00:07;19.50;;;8.02;;
49722;SDS011;43484;43.608;1.458;2023-03-23T07:02:41;13.95;;;7.55;;
49722;SDS011;43484;43.608;1.458;2023-03-23T07:05:07;16.35;;;8.10;;
49722;SDS011;43484;43.608;1.458;2023-03-23T07:07:34;11.05;;;7.50;;
49722;SDS011;43484;43.608;1.458;2023-03-23T07:10:05;21.13;;;7.88;;
49722;SDS011;43484;43.608;1.458;2023-03-23T07:12:31;16.63;;;7.38;;
49722;SDS011;43484;43.608;1.458;2023-03-23T07:14:58;18.33;;;7.70;;
49722;SDS011;43484;43.608;1.458;2023-03-23T07:17:24;12.77;;;8.10;;
49722;SDS011;43484;43.608;1.458;2023-03-23T07:19:50;20.08;;;7.82;;
49722;SDS011;43484;43.608;1.458;2023-03-23T07:22:15;13.65;;;7.05;;
49722;SDS011;43484;43.608;1.458;2023-03-23T07:24:41;18.50;;;7.60;;
49722;SDS011;43484;43.608;1.458;2023-03-23T07:27:06;18.90;;;8.10;;
49722;SDS011;43484;43.608;1.458;2023-03-23T07:29:32;16.65;;;8.50;;
49722;SDS011;43484;43.608;1.458;2023-03-23T07:32:01;18.13;;;7.97;;
49722;SDS011;43484;43.608;1.458;2023-03-23T07:34:27;13.05;;;8.05;;
49722;SDS011;43484;43.608;1.458;2023-03-23T07:36:53;16.63;;;7.80;;
49722;SDS011;43484;43.608;1.458;2023-03-23T07:39:19;17.83;;;9.00;;
49722;SDS011;43484;43.608;1.458;2023-03-23T07:41:44;18.95;;;8.73;;
49722;SDS011;43484;43.608;1.458;2023-03-23T07:44:10;19.00;;;9.35;;
49722;SDS011;43484;43.608;1.458;2023-03-23T07:46:35;16.95;;;8.55;;
49722;SDS011;43484;43.608;1.458;2023-03-23T07:49:01;24.05;;;10.35;;
49722;SDS011;43484;43.608;1.458;2023-03-23T07:51:30;17.15;;;8.40;;
49722;SDS011;43484;43.608;1.458;2023-03-23T07:53:57;14.15;;;8.73;;
49722;SDS011;43484;43.608;1.458;2023-03-23T07:56:22;14.85;;;8.52;;
49722;SDS011;43484;43.608;1.458;2023-03-23T07:58:48;19.02;;;9.25;;
49722;SDS011;43484;43.608;1.458;2023-03-23T08:01:14;20.80;;;9.98;;
49722;SDS011;43484;43.608;1.458;2023-03-23T08:03:40;18.00;;;8.57;;
49722;SDS011;43484;43.608;1.458;2023-03-23T08:06:07;19.15;;;9.20;;
49722;SDS011;43484;43.608;1.458;2023-03-23T08:08:33;17.30;;;8.05;;
49722;SDS011;43484;43.608;1.458;2023-03-23T08:10:59;19.58;;;9.63;;
49722;SDS011;43484;43.608;1.458;2023-03-23T08:13:25;14.02;;;8.93;;
49722;SDS011;43484;43.608;1.458;2023-03-23T08:15:51;17.05;;;7.88;;
49722;SDS011;43484;43.608;1.458;2023-03-23T08:18:17;12.80;;;9.05;;
49722;SDS011;43484;43.608;1.458;2023-03-23T08:20:42;13.93;;;8.55;;
49722;SDS011;43484;43.608;1.458;2023-03-23T08:23:09;17.17;;;8.65;;
49722;SDS011;43484;43.608;1.458;2023-03-23T08:25:35;16.60;;;9.10;;
49722;SDS011;43484;43.608;1.458;2023-03-23T08:28:01;16.33;;;7.68;;
49722;SDS011;43484;43.608;1.458;2023-03-23T08:30:28;13.00;;;7.45;;
49722;SDS011;43484;43.608;1.458;2023-03-23T08:32:55;13.73;;;8.82;;
49722;SDS011;43484;43.608;1.458;2023-03-23T08:35:23;11.73;;;8.27;;
49722;SDS011;43484;43.608;1.458;2023-03-23T08:37:49;22.20;;;8.48;;
49722;SDS011;43484;43.608;1.458;2023-03-23T08:40:20;16.35;;;7.20;;
49722;SDS011;43484;43.608;1.458;2023-03-23T08:42:47;26.38;;;8.63;;
49722;SDS011;43484;43.608;1.458;2023-03-23T08:45:16;19.17;;;7.75;;
49722;SDS011;43484;43.608;1.458;2023-03-23T08:47:43;12.38;;;6.68;;
49722;SDS011;43484;43.608;1.458;2023-03-23T08:50:11;11.23;;;6.88;;
49722;SDS011;43484;43.608;1.458;2023-03-23T08:52:38;10.23;;;7.07;;
49722;SDS011;43484;43.608;1.458;2023-03-23T08:55:04;13.38;;;6.18;;
49722;SDS011;43484;43.608;1.458;2023-03-23T08:57:30;8.32;;;5.72;;
49722;SDS011;43484;43.608;1.458;2023-03-23T08:59:56;9.10;;;5.80;;
49722;SDS011;43484;43.608;1.458;2023-03-23T09:02:33;10.98;;;6.05;;
49722;SDS011;43484;43.608;1.458;2023-03-23T09:04:59;13.07;;;9.40;;
49722;SDS011;43484;43.608;1.458;2023-03-23T09:07:26;10.95;;;5.50;;
49722;SDS011;43484;43.608;1.458;2023-03-23T09:09:52;11.02;;;5.78;;
49722;SDS011;43484;43.608;1.458;2023-03-23T09:12:18;10.40;;;5.50;;
49722;SDS011;43484;43.608;1.458;2023-03-23T09:14:43;13.60;;;5.75;;
49722;SDS011;43484;43.608;1.458;2023-03-23T09:17:09;14.60;;;5.45;;
49722;SDS011;43484;43.608;1.458;2023-03-23T09:19:38;13.10;;;5.20;;
49722;SDS011;43484;43.608;1.458;2023-03-23T09:22:03;9.77;;;5.75;;
49722;SDS011;43484;43.608;1.458;2023-03-23T09:24:29;7.95;;;5.47;;
49722;SDS011;43484;43.608;1.458;2023-03-23T09:26:55;7.65;;;5.18;;
49722;SDS011;43484;43.608;1.458;2023-03-23T09:29:20;16.17;;;5.10;;
49722;SDS011;43484;43.608;1.458;2023-03-23T09:31:46;12.07;;;6.80;;
49722;SDS011;43484;43.608;1.458;2023-03-23T09:34:12;8.80;;;5.75;;
49722;SDS011;43484;43.608;1.458;2023-03-23T09:36:40;11.10;;;6.15;;
49722;SDS011;43484;43.608;1.458;2023-03-23T09:39:06;7.63;;;5.07;;
49722;SDS011;43484;43.608;1.458;2023-03-23T09:55:23;9.50;;;5.25;;
49722;SDS011;43484;43.608;1.458;2023-03-23T09:57:54;10.65;;;5.80;;
49722;SDS011;43484;43.608;1.458;2023-03-23T10:00:36;10.63;;;5.13;;
49722;SDS011;43484;43.608;1.458;2023-03-23T10:03:14;7.88;;;5.20;;
49722;SDS011;43484;43.608;1.458;2023-03-23T10:05:44;5.88;;;4.60;;
49722;SDS011;43484;43.608;1.458;2023-03-23T10:08:19;7.30;;;4.47;;
49722;SDS011;43484;43.608;1.458;2023-03-23T10:13:35;6.32;;;3.80;;
49722;SDS011;43484;43.608;1.458;2023-03-23T10:16:21;4.82;;;4.32;;
49722;SDS011;43484;43.608;1.458;2023-03-23T10:18:57;7.38;;;4.70;;
49722;SDS011;43484;43.608;1.458;2023-03-23T10:21:29;11.88;;;4.72;;
49722;SDS011;43484;43.608;1.458;2023-03-23T10:24:01;6.03;;;3.95;;
49722;SDS011;43484;43.608;1.458;2023-03-23T10:26:48;3.67;;;3.30;;
49722;SDS011;43484;43.608;1.458;2023-03-23T10:29:17;7.78;;;4.47;;
49722;SDS011;43484;43.608;1.458;2023-03-23T10:31:58;4.28;;;3.40;;
49722;SDS011;43484;43.608;1.458;2023-03-23T10:34:31;5.07;;;3.97;;
49722;SDS011;43484;43.608;1.458;2023-03-23T10:39:53;6.40;;;4.38;;
49722;SDS011;43484;43.608;1.458;2023-03-23T10:42:24;7.32;;;4.50;;
49722;SDS011;43484;43.608;1.458;2023-03-23T10:44:52;13.07;;;4.65;;
49722;SDS011;43484;43.608;1.458;2023-03-23T10:47:21;6.47;;;4.45;;
49722;SDS011;43484;43.608;1.458;2023-03-23T10:57:37;8.00;;;4.88;;
49722;SDS011;43484;43.608;1.458;2023-03-23T11:02:44;6.88;;;4.53;;
49722;SDS011;43484;43.608;1.458;2023-03-23T11:05:26;9.88;;;4.93;;
49722;SDS011;43484;43.608;1.458;2023-03-23T11:08:10;8.25;;;4.68;;
49722;SDS011;43484;43.608;1.458;2023-03-23T11:10:39;6.93;;;4.25;;
49722;SDS011;43484;43.608;1.458;2023-03-23T11:13:12;7.93;;;5.18;;
49722;SDS011;43484;43.608;1.458;2023-03-23T11:15:40;10.18;;;5.72;;
49722;SDS011;43484;43.608;1.458;2023-03-23T11:18:11;8.30;;;4.72;;
49722;SDS011;43484;43.608;1.458;2023-03-23T11:20:45;9.43;;;4.95;;
49722;SDS011;43484;43.608;1.458;2023-03-23T11:23:22;13.02;;;5.10;;
49722;SDS011;43484;43.608;1.458;2023-03-23T11:26:20;9.88;;;5.32;;
49722;SDS011;43484;43.608;1.458;2023-03-23T11:31:34;8.48;;;5.80;;
49722;SDS011;43484;43.608;1.458;2023-03-23T11:34:09;9.25;;;5.15;;
49722;SDS011;43484;43.608;1.458;2023-03-23T11:36:41;9.60;;;5.78;;
49722;SDS011;43484;43.608;1.458;2023-03-23T11:41:53;12.70;;;5.47;;
49722;SDS011;43484;43.608;1.458;2023-03-23T11:44:21;19.58;;;6.13;;
49722;SDS011;43484;43.608;1.458;2023-03-23T11:46:51;11.07;;;5.43;;
49722;SDS011;43484;43.608;1.458;2023-03-23T11:51:55;9.25;;;5.90;;
49722;SDS011;43484;43.608;1.458;2023-03-23T11:54:36;8.48;;;5.38;;
49722;SDS011;43484;43.608;1.458;2023-03-23T11:57:10;10.20;;;5.45;;
49722;SDS011;43484;43.608;1.458;2023-03-23T11:59:38;12.23;;;6.00;;
49722;SDS011;43484;43.608;1.458;2023-03-23T12:18:24;8.32;;;5.20;;
49722;SDS011;43484;43.608;1.458;2023-03-23T12:21:11;10.52;;;5.30;;
49722;SDS011;43484;43.608;1.458;2023-03-23T12:31:55;7.10;;;5.25;;
49722;SDS011;43484;43.608;1.458;2023-03-23T12:40:32;11.40;;;4.97;;
49722;SDS011;43484;43.608;1.458;2023-03-23T12:48:43;7.85;;;4.50;;
49722;SDS011;43484;43.608;1.458;2023-03-23T12:51:32;12.77;;;4.50;;
49722;SDS011;43484;43.608;1.458;2023-03-23T13:02:40;8.63;;;5.03;;
49722;SDS011;43484;43.608;1.458;2023-03-23T13:07:56;8.18;;;4.30;;
49722;SDS011;43484;43.608;1.458;2023-03-23T13:10:33;6.20;;;4.18;;
49722;SDS011;43484;43.608;1.458;2023-03-23T13:13:05;8.68;;;4.15;;
49722;SDS011;43484;43.608;1.458;2023-03-23T13:15:46;7.03;;;4.38;;
49722;SDS011;43484;43.608;1.458;2023-03-23T13:23:45;8.80;;;4.93;;
49722;SDS011;43484;43.608;1.458;2023-03-23T13:26:24;8.98;;;5.32;;
49722;SDS011;43484;43.608;1.458;2023-03-23T13:31:38;6.95;;;4.45;;
49722;SDS011;43484;43.608;1.458;2023-03-23T13:36:43;9.63;;;3.78;;
49722;SDS011;43484;43.608;1.458;2023-03-23T13:39:21;8.57;;;4.20;;
49722;SDS011;43484;43.608;1.458;2023-03-23T13:47:14;10.73;;;4.28;;
49722;SDS011;43484;43.608;1.458;2023-03-23T13:52:36;8.85;;;3.97;;
49722;SDS011;43484;43.608;1.458;2023-03-23T13:57:55;7.70;;;4.03;;
49722;SDS011;43484;43.608;1.458;2023-03-23T14:03:02;7.28;;;4.38;;
49722;SDS011;43484;43.608;1.458;2023-03-23T14:05:35;6.85;;;4.03;;
49722;SDS011;43484;43.608;1.458;2023-03-23T14:13:16;5.05;;;3.40;;
49722;SDS011;43484;43.608;1.458;2023-03-23T14:18:48;8.13;;;3.63;;
49722;SDS011;43484;43.608;1.458;2023-03-23T14:24:06;9.68;;;4.13;;
49722;SDS011;43484;43.608;1.458;2023-03-23T14:26:36;8.57;;;3.70;;
49722;SDS011;43484;43.608;1.458;2023-03-23T14:29:03;7.75;;;4.35;;
49722;SDS011;43484;43.608;1.458;2023-03-23T14:31:30;8.82;;;3.30;;
49722;SDS011;43484;43.608;1.458;2023-03-23T14:34:00;9.35;;;3.97;;
49722;SDS011;43484;43.608;1.458;2023-03-23T14:36:37;12.13;;;4.55;;
49722;SDS011;43484;43.608;1.458;2023-03-23T14:41:42;9.27;;;4.20;;
49722;SDS011;43484;43.608;1.458;2023-03-23T14:44:17;6.97;;;3.97;;
49722;SDS011;43484;43.608;1.458;2023-03-23T14:46:47;10.48;;;3.70;;
49722;SDS011;43484;43.608;1.458;2023-03-23T14:49:16;8.20;;;3.72;;
49722;SDS011;43484;43.608;1.458;2023-03-23T14:51:50;10.45;;;4.60;;
49722;SDS011;43484;43.608;1.458;2023-03-23T14:54:27;8.88;;;4.25;;
49722;SDS011;43484;43.608;1.458;2023-03-23T14:56:54;7.53;;;3.88;;
49722;SDS011;43484;43.608;1.458;2023-03-23T14:59:20;12.43;;;4.97;;
49722;SDS011;43484;43.608;1.458;2023-03-23T15:01:48;12.40;;;5.72;;
49722;SDS011;43484;43.608;1.458;2023-03-23T15:06:43;9.07;;;5.35;;
49722;SDS011;43484;43.608;1.458;2023-03-23T15:09:21;8.30;;;5.07;;
49722;SDS011;43484;43.608;1.458;2023-03-23T15:12:23;9.77;;;5.13;;
49722;SDS011;43484;43.608;1.458;2023-03-23T15:14:50;13.55;;;4.60;;
49722;SDS011;43484;43.608;1.458;2023-03-23T15:17:21;9.38;;;4.88;;
49722;SDS011;43484;43.608;1.458;2023-03-23T15:19:49;12.00;;;4.72;;
49722;SDS011;43484;43.608;1.458;2023-03-23T15:22:23;9.82;;;4.57;;
49722;SDS011;43484;43.608;1.458;2023-03-23T15:24:51;12.13;;;5.97;;
49722;SDS011;43484;43.608;1.458;2023-03-23T15:27:29;11.98;;;4.45;;
49722;SDS011;43484;43.608;1.458;2023-03-23T15:29:58;15.90;;;5.53;;
49722;SDS011;43484;43.608;1.458;2023-03-23T15:32:27;9.07;;;4.10;;
49722;SDS011;43484;43.608;1.458;2023-03-23T15:34:54;8.93;;;4.55;;
49722;SDS011;43484;43.608;1.458;2023-03-23T15:37:23;8.05;;;3.78;;
49722;SDS011;43484;43.608;1.458;2023-03-23T15:39:55;12.00;;;4.03;;
49722;SDS011;43484;43.608;1.458;2023-03-23T15:42:26;10.77;;;4.38;;
49722;SDS011;43484;43.608;1.458;2023-03-23T15:44:54;13.50;;;3.80;;
49722;SDS011;43484;43.608;1.458;2023-03-23T15:47:22;12.70;;;4.05;;
49722;SDS011;43484;43.608;1.458;2023-03-23T15:49:58;12.57;;;4.10;;
49722;SDS011;43484;43.608;1.458;2023-03-23T15:52:28;17.40;;;5.18;;
49722;SDS011;43484;43.608;1.458;2023-03-23T15:54:54;14.82;;;4.75;;
49722;SDS011;43484;43.608;1.458;2023-03-23T15:57:20;9.73;;;4.05;;
49722;SDS011;43484;43.608;1.458;2023-03-23T15:59:46;9.13;;;4.15;;
49722;SDS011;43484;43.608;1.458;2023-03-23T16:02:15;10.70;;;3.63;;
49722;SDS011;43484;43.608;1.458;2023-03-23T16:04:45;9.10;;;4.07;;
49722;SDS011;43484;43.608;1.458;2023-03-23T16:46:14;7.65;;;4.15;;
49722;SDS011;43484;43.608;1.458;2023-03-23T16:48:41;11.40;;;3.25;;
49722;SDS011;43484;43.608;1.458;2023-03-23T16:51:08;10.95;;;4.05;;
49722;SDS011;43484;43.608;1.458;2023-03-23T16:53:34;9.70;;;3.53;;
49722;SDS011;43484;43.608;1.458;2023-03-23T16:56:02;9.10;;;3.97;;
49722;SDS011;43484;43.608;1.458;2023-03-23T16:58:29;10.90;;;3.47;;
49722;SDS011;43484;43.608;1.458;2023-03-23T17:00:56;10.27;;;3.95;;
49722;SDS011;43484;43.608;1.458;2023-03-23T17:03:23;14.05;;;4.35;;
49722;SDS011;43484;43.608;1.458;2023-03-23T17:05:50;9.98;;;3.50;;
49722;SDS011;43484;43.608;1.458;2023-03-23T17:08:18;12.25;;;3.90;;
49722;SDS011;43484;43.608;1.458;2023-03-23T17:10:45;14.15;;;4.28;;
49722;SDS011;43484;43.608;1.458;2023-03-23T17:13:12;9.65;;;3.65;;
49722;SDS011;43484;43.608;1.458;2023-03-23T17:15:40;6.82;;;3.45;;
49722;SDS011;43484;43.608;1.458;2023-03-23T17:18:11;14.32;;;3.47;;
49722;SDS011;43484;43.608;1.458;2023-03-23T17:20:39;14.10;;;3.78;;
49722;SDS011;43484;43.608;1.458;2023-03-23T17:23:05;10.75;;;3.47;;
49722;SDS011;43484;43.608;1.458;2023-03-23T17:25:32;10.80;;;3.20;;
49722;SDS011;43484;43.608;1.458;2023-03-23T17:27:58;9.48;;;3.15;;
49722;SDS011;43484;43.608;1.458;2023-03-23T17:30:31;18.55;;;3.97;;
49722;SDS011;43484;43.608;1.458;2023-03-23T17:32:58;13.55;;;4.45;;
49722;SDS011;43484;43.608;1.458;2023-03-23T17:35:25;9.02;;;3.33;;
49722;SDS011;43484;43.608;1.458;2023-03-23T17:37:52;12.02;;;3.60;;
49722;SDS011;43484;43.608;1.458;2023-03-23T17:40:18;9.43;;;3.25;;
49722;SDS011;43484;43.608;1.458;2023-03-23T17:42:45;11.93;;;3.47;;
49722;SDS011;43484;43.608;1.458;2023-03-23T17:45:12;12.25;;;3.65;;
49722;SDS011;43484;43.608;1.458;2023-03-23T17:47:38;15.73;;;3.40;;
49722;SDS011;43484;43.608;1.458;2023-03-23T17:50:05;9.32;;;3.47;;
49722;SDS011;43484;43.608;1.458;2023-03-23T17:52:38;17.33;;;3.65;;
49722;SDS011;43484;43.608;1.458;2023-03-23T17:55:05;17.08;;;4.53;;
49722;SDS011;43484;43.608;1.458;2023-03-23T17:57:32;13.13;;;4.32;;
49722;SDS011;43484;43.608;1.458;2023-03-23T18:00:01;14.68;;;4.07;;